Time;durP1;ratioP1;P1;durP2;ratioP2;P2;SDS_P1;SDS_P2;PMS_P1;PMS_P2;Temp;Humidity;BMP_temperature;BMP_pressure;BME280_temperature;BME280_humidity;BME280_pressure;Samples;Min_cycle;Max_cycle;Signal;HPM_P1;HPM_P2
2024/03/02 00:00:50;;;;;;;2.27;1.10;;;17.50;57.10;;;;;;5094556;28;20526;-81
2024/03/02 00:03:17;;;;;;;1.40;0.80;;;17.50;57.10;;;;;;5093956;28;20442;-80
2024/03/02 00:05:46;;;;;;;1.40;0.70;;;17.50;57.10;;;;;;5093801;28;20439;-81
2024/03/02 00:08:20;;;;;;;1.40;0.80;;;17.50;57.10;;;;;;5093700;28;20443;-81
2024/03/02 00:10:47;;;;;;;1.50;0.90;;;17.50;57.10;;;;;;5094021;28;20976;-82
2024/03/02 00:13:14;;;;;;;1.50;0.83;;;17.50;57.10;;;;;;5097388;28;20999;-82
2024/03/02 00:15:49;;;;;;;1.50;0.77;;;17.50;57.10;;;;;;5097699;28;21076;-80
2024/03/02 00:18:20;;;;;;;1.47;0.83;;;17.50;57.10;;;;;;5097927;28;20979;-90
2024/03/02 00:20:47;;;;;;;1.60;0.90;;;17.50;57.10;;;;;;5098003;28;20459;-86
2024/03/02 00:23:18;;;;;;;1.80;0.90;;;17.50;57.10;;;;;;5097988;28;20866;-80
2024/03/02 00:25:48;;;;;;;1.40;0.77;;;17.50;57.10;;;;;;5097556;28;20512;-90
2024/03/02 00:28:17;;;;;;;1.50;0.90;;;17.50;57.10;;;;;;5097532;28;20428;-80
2024/03/02 00:30:56;;;;;;;1.40;0.70;;;17.50;57.10;;;;;;5097403;28;20524;-82
2024/03/02 00:33:24;;;;;;;1.80;0.90;;;17.50;57.10;;;;;;5097542;28;20427;-87
2024/03/02 00:35:52;;;;;;;1.80;0.80;;;17.50;57.10;;;;;;5097375;28;20557;-85
2024/03/02 00:38:20;;;;;;;2.03;0.97;;;17.50;57.10;;;;;;5097406;28;20530;-86
2024/03/02 00:40:48;;;;;;;1.60;0.90;;;17.50;57.10;;;;;;5097339;28;20471;-87
2024/03/02 00:43:44;;;;;;;1.40;0.73;;;17.50;57.10;;;;;;5097041;28;20522;-91
2024/03/02 00:46:13;;;;;;;1.40;0.80;;;17.50;57.10;;;;;;5096864;28;20431;-80
2024/03/02 00:48:45;;;;;;;1.43;0.80;;;17.50;57.10;;;;;;5097040;28;20794;-80
2024/03/02 00:51:12;;;;;;;1.57;0.93;;;17.50;57.10;;;;;;5096768;28;20432;-81
2024/03/02 00:53:40;;;;;;;1.90;0.80;;;17.50;57.10;;;;;;5096484;28;20431;-80
2024/03/02 00:56:11;;;;;;;1.50;0.90;;;17.50;57.10;;;;;;5096926;28;21089;-90
2024/03/02 00:58:38;;;;;;;1.70;0.90;;;17.50;57.60;;;;;;5096994;28;20442;-80
2024/03/02 01:01:06;;;;;;;1.47;0.80;;;17.50;57.60;;;;;;5096954;28;20526;-80
2024/03/02 01:03:33;;;;;;;1.60;1.00;;;17.50;57.10;;;;;;5097179;28;20431;-90
2024/03/02 01:06:00;;;;;;;1.40;0.80;;;17.50;57.00;;;;;;5097082;28;20419;-83
2024/03/02 01:08:27;;;;;;;1.70;0.80;;;17.50;57.00;;;;;;5097244;28;20428;-81
2024/03/02 01:10:56;;;;;;;1.40;0.90;;;17.50;57.00;;;;;;5096853;28;20530;-83
2024/03/02 01:13:24;;;;;;;1.60;1.03;;;17.50;57.00;;;;;;5096714;28;20485;-80
2024/03/02 01:15:51;;;;;;;1.77;0.80;;;17.50;57.00;;;;;;5096494;28;20561;-86
2024/03/02 01:18:18;;;;;;;1.40;0.80;;;17.50;57.00;;;;;;5097267;28;20477;-91
2024/03/02 01:20:45;;;;;;;1.60;1.03;;;17.50;57.00;;;;;;5096913;28;20462;-80
2024/03/02 01:23:12;;;;;;;1.40;0.80;;;17.50;57.00;;;;;;5095506;28;21000;-80
2024/03/02 01:25:39;;;;;;;1.57;0.90;;;17.50;57.00;;;;;;5096089;28;20432;-80
2024/03/02 01:28:08;;;;;;;1.40;0.80;;;17.50;57.00;;;;;;5096136;28;20526;-80
2024/03/02 01:30:34;;;;;;;2.00;1.10;;;17.50;57.00;;;;;;5095902;28;20475;-80
2024/03/02 01:33:02;;;;;;;1.40;0.80;;;17.50;57.00;;;;;;5096116;28;20843;-79
2024/03/02 01:35:28;;;;;;;1.40;0.80;;;17.50;57.00;;;;;;5096046;28;20487;-79
2024/03/02 01:37:55;;;;;;;1.40;0.80;;;17.50;57.00;;;;;;5096089;28;20535;-80
2024/03/02 01:40:26;;;;;;;1.50;0.80;;;17.40;56.90;;;;;;5095672;28;20438;-80
2024/03/02 01:42:53;;;;;;;1.40;0.70;;;17.50;57.00;;;;;;5095986;28;20531;-79
2024/03/02 01:45:22;;;;;;;1.40;0.80;;;17.50;57.00;;;;;;5095661;28;20439;-79
2024/03/02 01:47:48;;;;;;;1.50;0.90;;;17.40;57.00;;;;;;5096078;28;20802;-89
2024/03/02 01:50:15;;;;;;;1.40;0.80;;;17.40;57.00;;;;;;5096244;28;20522;-89
2024/03/02 01:52:44;;;;;;;2.17;1.20;;;17.40;57.00;;;;;;5096044;28;20450;-80
2024/03/02 01:55:10;;;;;;;1.40;0.80;;;17.50;57.00;;;;;;5095376;28;20455;-80
2024/03/02 01:57:40;;;;;;;1.50;0.80;;;17.40;56.90;;;;;;5095287;28;20455;-88
2024/03/02 02:00:09;;;;;;;1.50;0.80;;;17.40;56.90;;;;;;5095633;28;20957;-80
2024/03/02 02:02:37;;;;;;;1.60;0.87;;;17.40;57.50;;;;;;5099102;28;20443;-79
2024/03/02 02:05:05;;;;;;;2.20;0.90;;;17.40;56.90;;;;;;5099984;28;20475;-79
2024/03/02 02:07:33;;;;;;;1.40;0.87;;;17.40;57.00;;;;;;5097267;28;20447;-79
2024/03/02 02:09:59;;;;;;;1.40;0.90;;;17.40;56.90;;;;;;5095037;28;20865;-79
2024/03/02 02:12:26;;;;;;;2.00;1.20;;;17.40;56.90;;;;;;5095536;28;20542;-89
2024/03/02 02:14:53;;;;;;;1.50;0.90;;;17.40;57.00;;;;;;5095058;28;20467;-79
2024/03/02 02:17:20;;;;;;;1.50;0.87;;;17.40;57.00;;;;;;5095158;28;20562;-79
2024/03/02 02:19:48;;;;;;;1.50;0.73;;;17.40;57.00;;;;;;5095187;28;20515;-79
2024/03/02 02:22:16;;;;;;;1.90;1.00;;;17.40;57.00;;;;;;5095164;28;20914;-79
2024/03/02 02:24:43;;;;;;;1.57;0.90;;;17.40;57.00;;;;;;5094885;28;20946;-80
2024/03/02 02:27:12;;;;;;;1.40;0.80;;;17.40;57.50;;;;;;5094683;28;20451;-80
2024/03/02 02:29:39;;;;;;;1.50;0.70;;;17.40;56.90;;;;;;5094863;28;21007;-81
2024/03/02 02:32:06;;;;;;;1.60;1.03;;;17.40;57.00;;;;;;5094893;28;20553;-81
2024/03/02 02:34:33;;;;;;;1.47;0.80;;;17.40;57.00;;;;;;5094864;28;20440;-85
2024/03/02 02:37:00;;;;;;;1.60;0.80;;;17.40;57.50;;;;;;5094722;28;20490;-80
2024/03/02 02:39:28;;;;;;;1.30;0.80;;;17.40;56.90;;;;;;5094740;28;20435;-81
2024/03/02 02:41:55;;;;;;;1.40;0.70;;;17.40;56.90;;;;;;5096824;28;20475;-81
2024/03/02 02:44:22;;;;;;;1.40;0.90;;;17.40;57.10;;;;;;5098837;28;20860;-81
2024/03/02 02:46:49;;;;;;;1.77;0.80;;;17.40;57.00;;;;;;5098270;28;20435;-81
2024/03/02 02:49:16;;;;;;;1.50;0.90;;;17.40;56.90;;;;;;5097168;28;20446;-81
2024/03/02 02:51:43;;;;;;;1.80;0.97;;;17.40;57.50;;;;;;5094451;28;20436;-80
2024/03/02 02:54:10;;;;;;;1.53;0.97;;;17.40;56.90;;;;;;5094479;28;20522;-87
2024/03/02 02:56:38;;;;;;;1.40;0.80;;;17.40;57.50;;;;;;5094469;28;20570;-80
2024/03/02 02:59:05;;;;;;;1.40;0.90;;;17.50;57.00;;;;;;5094339;28;20907;-80
2024/03/02 03:01:32;;;;;;;1.50;0.80;;;17.40;56.90;;;;;;5094705;28;20453;-80
2024/03/02 03:03:59;;;;;;;1.60;0.90;;;17.40;56.90;;;;;;5094699;28;20804;-80
2024/03/02 03:06:26;;;;;;;1.50;0.80;;;17.40;56.90;;;;;;5094508;28;20522;-80
2024/03/02 03:08:52;;;;;;;1.50;0.80;;;17.40;56.90;;;;;;5094385;28;20446;-90
2024/03/02 03:11:19;;;;;;;1.40;0.80;;;17.40;56.90;;;;;;5094173;28;20527;-80
2024/03/02 03:13:48;;;;;;;1.40;0.80;;;17.40;56.90;;;;;;5094358;28;20798;-79
2024/03/02 03:16:15;;;;;;;1.40;0.77;;;17.40;56.90;;;;;;5094527;28;20479;-88
2024/03/02 03:18:41;;;;;;;1.63;0.90;;;17.40;56.90;;;;;;5094621;28;20527;-90
2024/03/02 03:21:08;;;;;;;1.50;0.80;;;17.40;56.90;;;;;;5093843;28;20518;-91
2024/03/02 03:23:35;;;;;;;1.40;0.80;;;17.40;56.90;;;;;;5094048;28;20440;-79
2024/03/02 03:26:02;;;;;;;1.40;0.90;;;17.40;56.90;;;;;;5094043;28;20494;-79
2024/03/02 03:28:29;;;;;;;1.40;0.80;;;17.40;56.90;;;;;;5094066;28;20447;-90
2024/03/02 03:30:58;;;;;;;1.40;0.77;;;17.40;56.90;;;;;;5093628;28;20558;-89
2024/03/02 03:33:24;;;;;;;1.40;0.70;;;17.40;56.90;;;;;;5094361;28;20535;-80
2024/03/02 03:35:51;;;;;;;1.50;0.90;;;17.40;57.50;;;;;;5094302;28;20919;-80
2024/03/02 03:38:19;;;;;;;1.30;0.70;;;17.40;56.90;;;;;;5093979;28;20504;-91
2024/03/02 03:40:47;;;;;;;1.30;0.70;;;17.40;56.90;;;;;;5093768;28;20998;-90
2024/03/02 03:43:14;;;;;;;1.40;0.90;;;17.40;56.90;;;;;;5093979;28;20922;-80
2024/03/02 03:45:41;;;;;;;2.33;0.90;;;17.40;56.90;;;;;;5094087;28;20514;-90
2024/03/02 03:48:09;;;;;;;1.60;0.70;;;17.40;57.50;;;;;;5093152;28;20444;-80
2024/03/02 03:50:37;;;;;;;1.50;0.80;;;17.40;56.90;;;;;;5094461;28;20431;-84
2024/03/02 03:53:04;;;;;;;1.50;0.83;;;17.40;56.90;;;;;;5093606;28;20800;-80
2024/03/02 03:55:31;;;;;;;1.50;0.90;;;17.40;56.90;;;;;;5093359;28;20841;-89
2024/03/02 03:57:58;;;;;;;1.60;0.80;;;17.40;56.90;;;;;;5093371;28;20570;-80
2024/03/02 04:00:25;;;;;;;1.40;0.90;;;17.40;56.90;;;;;;5093384;28;20795;-80
2024/03/02 04:02:52;;;;;;;1.97;0.80;;;17.40;56.90;;;;;;5093602;28;20789;-80
2024/03/02 04:05:20;;;;;;;2.20;0.93;;;17.40;56.90;;;;;;5093469;28;20438;-80
2024/03/02 04:07:47;;;;;;;1.33;0.70;;;17.40;56.90;;;;;;5093405;28;20518;-81
2024/03/02 04:10:16;;;;;;;1.40;0.73;;;17.40;56.90;;;;;;5093166;28;20444;-81
2024/03/02 04:12:42;;;;;;;1.40;0.70;;;17.40;56.90;;;;;;5093161;28;20439;-80
2024/03/02 04:15:10;;;;;;;1.40;0.70;;;17.50;57.00;;;;;;5093241;28;20432;-80
2024/03/02 04:17:37;;;;;;;1.40;0.80;;;17.40;56.90;;;;;;5093205;28;20569;-90
2024/03/02 04:20:05;;;;;;;1.50;0.80;;;17.40;57.50;;;;;;5093233;28;20439;-80
2024/03/02 04:22:35;;;;;;;2.23;0.83;;;17.40;56.90;;;;;;5093164;28;20447;-80
2024/03/02 04:25:01;;;;;;;1.40;0.90;;;17.40;56.90;;;;;;5093069;28;20439;-80
2024/03/02 04:27:28;;;;;;;1.50;0.80;;;17.40;56.90;;;;;;5093098;28;20459;-80
2024/03/02 04:29:55;;;;;;;1.50;1.00;;;17.40;56.90;;;;;;5092947;28;20465;-79
2024/03/02 04:32:22;;;;;;;1.50;0.80;;;17.40;56.90;;;;;;5093190;28;20948;-80
2024/03/02 04:34:49;;;;;;;1.40;0.80;;;17.40;56.90;;;;;;5093207;28;20439;-80
2024/03/02 04:37:15;;;;;;;1.87;0.80;;;17.40;56.90;;;;;;5093810;28;20491;-89
2024/03/02 04:39:45;;;;;;;1.40;0.90;;;17.40;56.90;;;;;;5093460;28;20462;-79
2024/03/02 04:42:12;;;;;;;1.50;0.90;;;17.40;56.90;;;;;;5093530;28;20435;-80
2024/03/02 04:44:39;;;;;;;1.53;0.70;;;17.40;56.90;;;;;;5093587;28;20440;-79
2024/03/02 04:47:06;;;;;;;1.37;0.73;;;17.40;56.90;;;;;;5093902;28;20438;-90
2024/03/02 04:49:33;;;;;;;1.50;0.80;;;17.40;56.90;;;;;;5104061;28;20443;-80
2024/03/02 04:52:00;;;;;;;1.70;0.90;;;17.30;56.80;;;;;;5108319;28;20451;-80
2024/03/02 04:54:27;;;;;;;1.40;0.70;;;17.40;57.50;;;;;;5096922;28;20523;-80
2024/03/02 04:56:54;;;;;;;1.50;0.90;;;17.30;56.80;;;;;;5093618;28;20574;-90
2024/03/02 04:59:21;;;;;;;1.40;0.80;;;17.30;56.80;;;;;;5097282;28;20465;-91
2024/03/02 05:01:48;;;;;;;1.57;0.80;;;17.30;56.80;;;;;;5097160;28;20526;-90
2024/03/02 05:04:15;;;;;;;1.53;0.90;;;17.30;56.80;;;;;;5097219;28;20788;-80
2024/03/02 05:06:42;;;;;;;1.37;0.70;;;17.30;56.80;;;;;;5096694;28;20844;-89
2024/03/02 05:09:09;;;;;;;1.60;0.90;;;17.30;56.80;;;;;;5096590;28;20522;-80
2024/03/02 05:14:23;;;;;;;1.40;0.70;;;17.30;56.80;;;;;;5079524;28;20435;-91
2024/03/02 05:16:50;;;;;;;1.50;0.83;;;17.30;56.80;;;;;;5096747;28;20481;-90
2024/03/02 05:19:17;;;;;;;1.40;0.70;;;17.30;56.80;;;;;;5096995;28;20919;-90
2024/03/02 05:21:44;;;;;;;1.57;0.77;;;17.30;56.80;;;;;;5096835;28;20436;-80
2024/03/02 05:24:10;;;;;;;1.40;0.80;;;17.30;56.80;;;;;;5096476;28;20929;-79
2024/03/02 05:26:37;;;;;;;1.50;1.10;;;17.30;56.80;;;;;;5096092;28;20540;-79
2024/03/02 05:29:04;;;;;;;1.50;0.77;;;17.30;56.80;;;;;;5097273;28;20442;-81
2024/03/02 05:31:32;;;;;;;1.30;0.63;;;17.30;56.80;;;;;;5096095;28;20485;-79
2024/03/02 05:33:59;;;;;;;1.40;0.70;;;17.30;56.80;;;;;;5096298;28;20522;-79
2024/03/02 05:36:26;;;;;;;1.40;0.80;;;17.30;56.80;;;;;;5096316;28;20538;-79
2024/03/02 05:38:52;;;;;;;1.50;0.80;;;17.30;56.80;;;;;;5096966;28;20432;-80
2024/03/02 05:41:19;;;;;;;1.40;0.70;;;17.30;56.80;;;;;;5096617;28;20436;-84
2024/03/02 05:43:46;;;;;;;1.40;0.80;;;17.30;56.80;;;;;;5096593;28;20528;-79
2024/03/02 05:46:13;;;;;;;1.60;1.00;;;17.30;56.80;;;;;;5096051;28;20530;-80
2024/03/02 05:48:41;;;;;;;1.37;0.80;;;17.30;56.80;;;;;;5095858;28;20435;-81
2024/03/02 05:51:08;;;;;;;1.50;0.80;;;17.30;56.80;;;;;;5095953;28;20434;-81
2024/03/02 05:53:41;;;;;;;1.40;0.70;;;17.30;56.80;;;;;;5096223;28;20442;-80
2024/03/02 05:56:08;;;;;;;1.40;0.80;;;17.30;56.80;;;;;;5095643;28;20531;-81
2024/03/02 05:58:49;;;;;;;1.40;0.70;;;17.30;56.80;;;;;;5095398;28;20847;-80
2024/03/02 06:01:17;;;;;;;1.50;0.80;;;17.30;56.80;;;;;;5095625;28;20496;-81
2024/03/02 06:03:46;;;;;;;1.60;0.77;;;17.30;56.80;;;;;;5095814;28;20576;-80
2024/03/02 06:06:12;;;;;;;1.50;0.90;;;17.30;56.80;;;;;;5095248;28;20863;-80
2024/03/02 06:08:39;;;;;;;1.50;0.90;;;17.30;56.80;;;;;;5096112;28;20446;-89
2024/03/02 06:11:06;;;;;;;1.60;0.90;;;17.40;56.90;;;;;;5093509;28;20448;-81
2024/03/02 06:13:33;;;;;;;1.40;0.80;;;17.30;56.80;;;;;;5095225;28;20427;-80
2024/03/02 06:16:00;;;;;;;1.70;0.80;;;17.30;57.40;;;;;;5095542;28;20431;-80
2024/03/02 06:18:27;;;;;;;1.50;0.80;;;17.30;56.80;;;;;;5095022;28;20928;-84
2024/03/02 06:20:55;;;;;;;1.50;0.80;;;17.30;56.80;;;;;;5095061;28;20443;-79
2024/03/02 06:23:22;;;;;;;1.50;0.83;;;17.30;56.80;;;;;;5095288;28;20434;-80
2024/03/02 06:25:49;;;;;;;1.50;0.97;;;17.30;56.80;;;;;;5095426;28;20452;-89
2024/03/02 06:28:16;;;;;;;1.70;0.80;;;17.30;56.80;;;;;;5095418;28;20953;-90
2024/03/02 06:30:43;;;;;;;1.40;0.80;;;17.30;56.80;;;;;;5095227;28;20485;-80
2024/03/02 06:33:10;;;;;;;1.40;0.80;;;17.30;56.80;;;;;;5094861;28;20522;-80
2024/03/02 06:35:36;;;;;;;1.77;1.10;;;17.30;56.80;;;;;;5094744;28;20526;-79
2024/03/02 06:38:05;;;;;;;1.43;0.90;;;17.30;56.80;;;;;;5094604;28;20569;-89
2024/03/02 06:40:32;;;;;;;1.50;0.80;;;17.30;56.80;;;;;;5094922;28;20790;-79
2024/03/02 06:42:58;;;;;;;1.67;0.90;;;17.30;56.80;;;;;;5094900;28;20435;-85
2024/03/02 06:45:25;;;;;;;1.33;0.70;;;17.30;56.80;;;;;;5094662;28;20427;-80
2024/03/02 06:47:52;;;;;;;1.60;1.00;;;17.30;56.80;;;;;;5095226;28;20881;-89
2024/03/02 06:50:19;;;;;;;1.40;0.80;;;17.30;56.80;;;;;;5094892;28;20427;-80
2024/03/02 06:52:46;;;;;;;2.07;1.10;;;17.30;56.80;;;;;;5095153;28;20514;-80
2024/03/02 06:55:14;;;;;;;1.60;0.80;;;17.30;56.80;;;;;;5094747;28;20435;-89
2024/03/02 06:57:41;;;;;;;1.40;0.80;;;17.30;56.80;;;;;;5094313;28;20565;-79
2024/03/02 07:00:09;;;;;;;1.40;0.70;;;17.30;56.80;;;;;;5094454;28;20446;-80
2024/03/02 07:02:37;;;;;;;1.43;0.80;;;17.30;56.80;;;;;;5094301;28;20518;-79
2024/03/02 07:05:04;;;;;;;1.40;0.80;;;17.30;56.80;;;;;;5094518;28;20910;-79
2024/03/02 07:07:31;;;;;;;1.33;0.70;;;17.30;56.80;;;;;;5094835;28;20444;-86
2024/03/02 07:09:58;;;;;;;1.50;0.80;;;17.30;56.80;;;;;;5094653;28;20439;-87
2024/03/02 07:12:26;;;;;;;1.50;0.93;;;17.30;56.80;;;;;;5094434;28;20940;-88
2024/03/02 07:15:11;;;;;;;1.47;0.90;;;17.30;57.40;;;;;;5094563;28;21018;-82
2024/03/02 07:17:38;;;;;;;1.70;1.00;;;17.30;56.70;;;;;;5094940;28;20475;-79
2024/03/02 07:20:06;;;;;;;1.50;0.80;;;17.30;56.70;;;;;;5094627;28;20446;-79
2024/03/02 07:22:34;;;;;;;1.53;0.80;;;17.30;56.70;;;;;;5093932;28;20544;-88
2024/03/02 07:25:00;;;;;;;1.70;1.10;;;17.30;56.70;;;;;;5095193;28;20442;-80
2024/03/02 07:27:29;;;;;;;1.40;0.80;;;17.30;57.20;;;;;;5094359;28;20451;-89
2024/03/02 07:29:55;;;;;;;1.50;0.87;;;17.40;56.80;;;;;;5094220;28;20478;-87
2024/03/02 07:32:22;;;;;;;1.93;1.00;;;17.30;56.60;;;;;;5094881;28;20442;-86
2024/03/02 07:34:50;;;;;;;1.53;0.80;;;17.40;56.70;;;;;;5094651;28;20427;-89
2024/03/02 07:37:17;;;;;;;1.40;0.80;;;17.30;56.70;;;;;;5099682;28;20833;-80
2024/03/02 07:39:45;;;;;;;1.63;0.97;;;17.30;56.70;;;;;;5110384;28;20444;-80
2024/03/02 07:42:12;;;;;;;1.50;0.80;;;17.30;56.70;;;;;;5094740;28;20877;-81
2024/03/02 07:44:40;;;;;;;1.60;1.00;;;17.30;56.70;;;;;;5094331;28;20431;-81
2024/03/02 07:47:07;;;;;;;1.40;0.80;;;17.30;56.70;;;;;;5094318;28;20519;-81
2024/03/02 07:49:35;;;;;;;1.50;0.80;;;17.30;56.70;;;;;;5094153;28;20918;-86
2024/03/02 07:52:01;;;;;;;2.47;0.90;;;17.40;56.80;;;;;;5093997;28;20435;-82
2024/03/02 07:54:28;;;;;;;1.50;0.80;;;17.30;56.80;;;;;;5093437;28;20435;-83
2024/03/02 07:56:55;;;;;;;1.57;0.90;;;17.30;56.70;;;;;;5093625;28;20455;-81
2024/03/02 07:59:22;;;;;;;1.40;0.80;;;17.30;56.70;;;;;;5093501;28;20479;-81
2024/03/02 08:01:51;;;;;;;1.40;0.80;;;17.30;56.70;;;;;;5093481;28;20432;-81
2024/03/02 08:04:18;;;;;;;1.40;0.80;;;17.40;56.80;;;;;;5093826;28;20435;-91
2024/03/02 08:06:47;;;;;;;1.47;0.70;;;17.40;56.70;;;;;;5094877;28;20890;-89
2024/03/02 08:09:13;;;;;;;2.10;0.90;;;17.40;56.70;;;;;;5094333;28;20446;-79
2024/03/02 08:11:40;;;;;;;1.77;0.90;;;17.40;56.70;;;;;;5094136;28;20438;-88
2024/03/02 08:14:07;;;;;;;1.50;0.90;;;17.40;56.70;;;;;;5094309;28;20860;-82
2024/03/02 08:16:34;;;;;;;1.50;0.80;;;17.40;56.60;;;;;;5095035;28;20435;-90
2024/03/02 08:19:03;;;;;;;1.50;0.90;;;17.40;56.70;;;;;;5094946;28;20528;-87
2024/03/02 08:21:32;;;;;;;1.60;1.10;;;17.50;56.70;;;;;;5094523;28;20482;-80
2024/03/02 08:23:59;;;;;;;1.40;0.80;;;17.40;57.30;;;;;;5094601;28;20440;-81
2024/03/02 08:26:28;;;;;;;1.70;0.83;;;17.50;57.30;;;;;;5093972;28;20462;-81
2024/03/02 08:28:55;;;;;;;1.40;0.80;;;17.50;56.80;;;;;;5093577;28;20436;-81
2024/03/02 08:31:22;;;;;;;1.50;1.00;;;17.50;56.80;;;;;;5093985;28;20879;-88
2024/03/02 08:33:49;;;;;;;1.40;0.80;;;17.50;56.80;;;;;;5096191;28;20573;-80
2024/03/02 08:36:17;;;;;;;1.40;0.80;;;17.50;56.90;;;;;;5097536;28;20447;-80
2024/03/02 08:38:44;;;;;;;1.40;0.90;;;17.50;56.90;;;;;;5103151;28;20489;-80
2024/03/02 08:41:13;;;;;;;2.07;0.80;;;17.50;56.90;;;;;;5111794;28;20415;-82
2024/03/02 08:43:41;;;;;;;1.50;0.80;;;17.50;56.90;;;;;;5102483;28;20494;-79
2024/03/02 08:46:08;;;;;;;1.60;0.90;;;17.60;57.00;;;;;;5104261;28;20510;-78
2024/03/02 08:48:35;;;;;;;1.40;0.80;;;17.70;57.00;;;;;;5101382;28;20427;-80
2024/03/02 08:51:04;;;;;;;1.60;0.80;;;17.70;56.90;;;;;;5097457;28;20427;-80
2024/03/02 08:53:32;;;;;;;1.43;0.90;;;17.80;56.90;;;;;;5096990;28;20439;-89
2024/03/02 08:55:59;;;;;;;1.30;0.70;;;17.90;56.80;;;;;;5097142;28;20761;-91
2024/03/02 08:58:26;;;;;;;1.40;0.80;;;18.00;57.40;;;;;;5097409;28;20830;-87
2024/03/02 09:00:53;;;;;;;1.40;0.80;;;18.10;56.80;;;;;;5099941;28;20431;-80
2024/03/02 09:03:19;;;;;;;1.70;0.90;;;18.10;56.70;;;;;;5098898;28;20495;-80
2024/03/02 09:05:46;;;;;;;1.50;0.80;;;18.20;56.60;;;;;;5097026;28;20435;-80
2024/03/02 09:08:13;;;;;;;1.70;1.00;;;18.30;56.60;;;;;;5097172;28;20873;-87
2024/03/02 09:10:41;;;;;;;1.40;0.80;;;18.40;56.60;;;;;;5096846;28;20434;-89
2024/03/02 09:13:08;;;;;;;1.50;0.83;;;18.50;56.50;;;;;;5097112;28;20956;-79
2024/03/02 09:15:37;;;;;;;1.70;0.97;;;18.60;56.50;;;;;;5097272;28;20434;-91
2024/03/02 09:18:04;;;;;;;1.40;0.80;;;18.70;56.50;;;;;;5096921;28;20494;-81
2024/03/02 09:20:31;;;;;;;1.60;0.80;;;18.60;56.40;;;;;;5096764;28;20427;-81
2024/03/02 09:22:58;;;;;;;1.60;0.87;;;18.70;56.40;;;;;;5096569;28;20501;-91
2024/03/02 09:25:25;;;;;;;1.50;0.83;;;18.80;56.50;;;;;;5096757;28;20797;-81
2024/03/02 09:27:53;;;;;;;1.50;0.80;;;18.80;56.40;;;;;;5096577;28;20444;-81
2024/03/02 09:30:20;;;;;;;1.40;0.90;;;18.90;56.40;;;;;;5095813;28;20463;-90
2024/03/02 09:32:47;;;;;;;1.50;1.00;;;18.90;56.40;;;;;;5096570;28;20460;-81
2024/03/02 09:35:14;;;;;;;1.40;0.80;;;19.00;56.40;;;;;;5096182;28;20444;-81
2024/03/02 09:37:40;;;;;;;1.60;1.10;;;19.00;56.50;;;;;;5096092;28;20466;-82
2024/03/02 09:40:08;;;;;;;1.73;0.80;;;19.00;56.50;;;;;;5096100;28;20431;-84
2024/03/02 09:42:36;;;;;;;2.00;1.23;;;19.00;56.60;;;;;;5095949;28;20539;-86
2024/03/02 09:45:06;;;;;;;1.60;0.90;;;19.00;56.10;;;;;;5095496;28;20938;-89
2024/03/02 09:47:32;;;;;;;2.43;0.90;;;19.00;56.20;;;;;;5096350;28;20523;-82
2024/03/02 09:50:00;;;;;;;13.47;1.10;;;18.90;55.90;;;;;;5096308;28;20440;-90
2024/03/02 09:52:27;;;;;;;2.70;0.80;;;19.00;56.00;;;;;;5096071;28;20438;-81
2024/03/02 09:54:54;;;;;;;1.60;1.00;;;18.90;55.80;;;;;;5095704;28;20861;-81
2024/03/02 09:57:20;;;;;;;1.43;0.80;;;18.90;55.80;;;;;;5095652;28;20590;-81
2024/03/02 09:59:47;;;;;;;1.70;1.07;;;18.90;56.40;;;;;;5095430;28;20490;-81
2024/03/02 10:02:15;;;;;;;2.67;0.93;;;18.90;55.80;;;;;;5095876;28;20431;-85
2024/03/02 10:04:44;;;;;;;1.43;0.90;;;19.00;55.90;;;;;;5095895;28;20428;-90
2024/03/02 10:07:15;;;;;;;2.40;1.00;;;19.00;55.90;;;;;;5096106;28;20436;-81
2024/03/02 10:09:44;;;;;;;1.60;0.90;;;19.00;55.80;;;;;;5095644;28;20940;-82
2024/03/02 10:12:12;;;;;;;1.40;0.80;;;19.00;55.80;;;;;;5095497;28;20534;-82
2024/03/02 10:14:39;;;;;;;1.70;1.00;;;19.10;55.90;;;;;;5095768;28;20527;-82
2024/03/02 10:17:08;;;;;;;1.40;0.80;;;19.00;55.80;;;;;;5095644;28;20531;-90
2024/03/02 10:19:37;;;;;;;1.50;0.90;;;19.10;55.80;;;;;;5096091;28;20842;-84
2024/03/02 10:22:05;;;;;;;2.00;1.10;;;19.10;55.80;;;;;;5095442;28;20526;-81
2024/03/02 10:24:44;;;;;;;1.50;0.90;;;19.10;55.80;;;;;;5102380;28;20448;-81
2024/03/02 10:27:15;;;;;;;1.50;0.97;;;19.10;55.80;;;;;;5102021;28;20464;-82
2024/03/02 10:29:43;;;;;;;1.97;0.90;;;19.10;55.80;;;;;;5096120;28;20451;-81
2024/03/02 10:32:11;;;;;;;2.93;0.90;;;19.10;55.80;;;;;;5094846;28;20458;-81
2024/03/02 10:34:41;;;;;;;1.60;0.97;;;19.20;55.80;;;;;;5094904;28;20518;-81
2024/03/02 10:37:08;;;;;;;1.70;0.80;;;19.20;55.90;;;;;;5095001;28;20446;-81
2024/03/02 10:39:36;;;;;;;1.50;1.00;;;19.20;55.90;;;;;;5094778;28;20489;-82
2024/03/02 10:42:04;;;;;;;1.60;0.80;;;19.20;55.90;;;;;;5095036;28;20443;-83
2024/03/02 10:44:32;;;;;;;1.47;0.73;;;19.20;55.80;;;;;;5094605;28;21018;-80
2024/03/02 10:47:01;;;;;;;1.60;0.77;;;19.20;56.60;;;;;;5094481;28;20442;-80
2024/03/02 10:49:29;;;;;;;2.47;0.80;;;19.20;56.20;;;;;;5094582;28;20431;-81
2024/03/02 10:51:58;;;;;;;1.70;0.80;;;19.30;56.40;;;;;;5094669;28;20522;-90
2024/03/02 10:54:28;;;;;;;2.10;0.90;;;19.30;56.50;;;;;;5094351;28;20523;-81
2024/03/02 10:56:59;;;;;;;1.60;0.90;;;19.30;56.50;;;;;;5094318;28;20455;-90
2024/03/02 10:59:30;;;;;;;3.50;1.00;;;19.40;56.60;;;;;;5094372;28;20574;-81
2024/03/02 11:01:59;;;;;;;1.50;0.80;;;19.40;56.70;;;;;;5094420;28;20496;-80
2024/03/02 11:04:27;;;;;;;1.60;0.90;;;19.50;56.80;;;;;;5094246;28;20439;-80
2024/03/02 11:07:00;;;;;;;2.10;0.87;;;19.50;56.90;;;;;;5094472;28;20538;-84
2024/03/02 11:09:29;;;;;;;2.17;0.83;;;19.60;56.90;;;;;;5094173;28;20467;-82
2024/03/02 11:12:03;;;;;;;1.40;0.73;;;19.60;57.00;;;;;;5093985;28;20436;-80
2024/03/02 11:14:31;;;;;;;1.50;0.80;;;19.60;57.00;;;;;;5094025;28;20864;-80
2024/03/02 11:16:59;;;;;;;2.27;0.90;;;19.60;57.10;;;;;;5094243;28;20440;-80
2024/03/02 11:19:26;;;;;;;1.97;1.10;;;19.60;57.20;;;;;;5094298;28;20486;-80
2024/03/02 11:21:54;;;;;;;1.67;0.90;;;19.70;57.20;;;;;;5093860;28;20586;-81
2024/03/02 11:24:33;;;;;;;1.50;0.90;;;19.70;57.30;;;;;;5093834;28;20439;-81
2024/03/02 11:27:00;;;;;;;1.57;0.80;;;19.70;57.40;;;;;;5093948;28;20542;-80
2024/03/02 11:29:46;;;;;;;2.33;0.90;;;19.70;57.40;;;;;;5093767;28;20432;-81
2024/03/02 11:32:18;;;;;;;2.67;0.80;;;19.80;57.50;;;;;;5093865;28;20958;-81
2024/03/02 11:34:47;;;;;;;1.83;1.00;;;19.80;57.60;;;;;;5093587;28;20534;-80
2024/03/02 11:37:15;;;;;;;2.27;0.83;;;19.80;57.60;;;;;;5093741;28;20435;-80
2024/03/02 11:39:45;;;;;;;1.50;0.90;;;19.80;57.60;;;;;;5093651;28;20910;-81
2024/03/02 11:42:13;;;;;;;1.50;0.80;;;19.90;57.70;;;;;;5093849;28;20443;-80
2024/03/02 11:44:43;;;;;;;1.70;0.80;;;19.90;57.70;;;;;;5093727;28;20845;-80
2024/03/02 11:47:15;;;;;;;1.70;1.10;;;19.90;57.80;;;;;;5093467;28;21002;-80
2024/03/02 11:49:43;;;;;;;1.50;0.83;;;19.90;57.80;;;;;;5093798;28;20945;-80
2024/03/02 11:52:12;;;;;;;1.80;0.90;;;20.00;57.90;;;;;;5093891;28;20436;-80
2024/03/02 11:54:40;;;;;;;1.60;0.70;;;20.00;57.90;;;;;;5093654;28;20768;-80
2024/03/02 11:57:08;;;;;;;1.63;0.90;;;20.00;58.50;;;;;;5093238;28;20815;-81
2024/03/02 11:59:36;;;;;;;1.50;0.77;;;20.00;57.90;;;;;;5093316;28;20493;-81
2024/03/02 12:02:03;;;;;;;1.50;0.80;;;20.00;57.90;;;;;;5093534;28;20481;-84
2024/03/02 12:04:30;;;;;;;1.80;0.90;;;20.00;57.90;;;;;;5093430;28;20776;-90
2024/03/02 12:07:00;;;;;;;1.83;0.80;;;20.00;57.90;;;;;;5093201;28;21011;-81
2024/03/02 12:09:27;;;;;;;1.40;0.80;;;20.00;57.90;;;;;;5093158;28;20915;-81
2024/03/02 12:12:05;;;;;;;1.70;0.90;;;20.00;57.90;;;;;;5093459;28;20433;-81
2024/03/02 12:14:34;;;;;;;2.57;0.90;;;20.00;57.90;;;;;;5093708;28;20518;-82
2024/03/02 12:17:01;;;;;;;1.60;0.80;;;20.00;58.00;;;;;;5093275;28;20518;-81
2024/03/02 12:19:29;;;;;;;1.40;0.70;;;20.00;58.00;;;;;;5093092;28;20483;-81
2024/03/02 12:21:57;;;;;;;2.63;0.90;;;20.00;58.00;;;;;;5093372;28;20810;-81
2024/03/02 12:24:25;;;;;;;1.50;0.80;;;20.00;58.00;;;;;;5093216;28;20526;-81
2024/03/02 12:26:52;;;;;;;1.40;0.70;;;20.00;57.90;;;;;;5093053;28;20489;-81
2024/03/02 12:29:20;;;;;;;1.60;0.90;;;20.00;57.90;;;;;;5093089;28;20439;-80
2024/03/02 12:31:50;;;;;;;1.60;0.70;;;19.90;58.00;;;;;;5092853;28;20475;-80
2024/03/02 12:34:18;;;;;;;1.70;0.70;;;19.90;58.60;;;;;;5093173;28;20440;-81
2024/03/02 12:36:49;;;;;;;1.93;0.80;;;19.90;58.00;;;;;;5093071;28;20492;-81
2024/03/02 12:39:16;;;;;;;1.80;0.93;;;19.90;58.00;;;;;;5093014;28;21008;-81
2024/03/02 12:41:43;;;;;;;1.47;0.80;;;19.80;58.00;;;;;;5093483;28;20531;-81
2024/03/02 12:44:10;;;;;;;2.43;0.80;;;19.80;58.00;;;;;;5093263;28;20431;-80
2024/03/02 12:46:37;;;;;;;1.50;0.80;;;19.80;58.00;;;;;;5093096;28;20526;-81
2024/03/02 12:49:11;;;;;;;2.43;0.90;;;19.80;58.00;;;;;;5094099;28;20443;-80
2024/03/02 12:51:40;;;;;;;1.93;1.00;;;19.70;58.00;;;;;;5093059;28;20440;-81
2024/03/02 12:54:07;;;;;;;1.40;0.60;;;19.70;58.10;;;;;;5093020;28;20501;-80